sensor_id;sensor_type;location;lat;lon;timestamp;pressure;altitude;pressure_sealevel;temperature;humidity
59443;BME280;45247;47.466;19.004;2023-05-19T00:00:08;100518.53;;;11.77;100.00
59443;BME280;45247;47.466;19.004;2023-05-19T00:02:41;100517.53;;;11.80;100.00
59443;BME280;45247;47.466;19.004;2023-05-19T00:05:10;100516.94;;;11.75;100.00
59443;BME280;45247;47.466;19.004;2023-05-19T00:07:42;100513.84;;;11.67;100.00
59443;BME280;45247;47.466;19.004;2023-05-19T00:10:12;100522.72;;;11.66;100.00
59443;BME280;45247;47.466;19.004;2023-05-19T00:12:42;100518.56;;;11.62;100.00
59443;BME280;45247;47.466;19.004;2023-05-19T00:15:13;100522.78;;;11.64;100.00
59443;BME280;45247;47.466;19.004;2023-05-19T00:17:41;100516.25;;;11.71;100.00
59443;BME280;45247;47.466;19.004;2023-05-19T00:20:11;100524.09;;;11.73;100.00
59443;BME280;45247;47.466;19.004;2023-05-19T00:22:40;100526.13;;;11.68;100.00
59443;BME280;45247;47.466;19.004;2023-05-19T00:25:09;100532.38;;;11.67;100.00
59443;BME280;45247;47.466;19.004;2023-05-19T00:27:38;100526.22;;;11.66;100.00
59443;BME280;45247;47.466;19.004;2023-05-19T00:30:07;100524.44;;;11.67;100.00
59443;BME280;45247;47.466;19.004;2023-05-19T00:32:37;100519.31;;;11.64;100.00
59443;BME280;45247;47.466;19.004;2023-05-19T00:35:09;100507.19;;;11.60;100.00
59443;BME280;45247;47.466;19.004;2023-05-19T00:37:37;100514.41;;;11.56;100.00
59443;BME280;45247;47.466;19.004;2023-05-19T00:40:08;100510.31;;;11.50;100.00
59443;BME280;45247;47.466;19.004;2023-05-19T00:42:37;100502.91;;;11.41;100.00
59443;BME280;45247;47.466;19.004;2023-05-19T00:45:06;100505.63;;;11.40;100.00
59443;BME280;45247;47.466;19.004;2023-05-19T00:47:34;100506.47;;;11.40;100.00
59443;BME280;45247;47.466;19.004;2023-05-19T00:50:05;100509.88;;;11.42;100.00
59443;BME280;45247;47.466;19.004;2023-05-19T00:52:33;100508.34;;;11.38;100.00
59443;BME280;45247;47.466;19.004;2023-05-19T00:55:01;100504.94;;;11.36;100.00
59443;BME280;45247;47.466;19.004;2023-05-19T00:57:30;100508.78;;;11.31;100.00
59443;BME280;45247;47.466;19.004;2023-05-19T00:59:58;100503.53;;;11.29;100.00
59443;BME280;45247;47.466;19.004;2023-05-19T01:02:26;100509.88;;;11.26;100.00
59443;BME280;45247;47.466;19.004;2023-05-19T01:04:56;100505.50;;;11.25;100.00
59443;BME280;45247;47.466;19.004;2023-05-19T01:07:26;100503.03;;;11.22;100.00
59443;BME280;45247;47.466;19.004;2023-05-19T01:09:55;100500.44;;;11.21;100.00
59443;BME280;45247;47.466;19.004;2023-05-19T01:12:23;100496.44;;;11.14;100.00
59443;BME280;45247;47.466;19.004;2023-05-19T01:14:52;100500.94;;;11.12;100.00
59443;BME280;45247;47.466;19.004;2023-05-19T01:17:31;100503.66;;;11.10;100.00
59443;BME280;45247;47.466;19.004;2023-05-19T01:20:05;100501.19;;;11.07;100.00
59443;BME280;45247;47.466;19.004;2023-05-19T01:26:08;100508.25;;;11.07;100.00
59443;BME280;45247;47.466;19.004;2023-05-19T01:28:56;100503.97;;;11.04;100.00
59443;BME280;45247;47.466;19.004;2023-05-19T01:31:31;100509.25;;;11.04;100.00
59443;BME280;45247;47.466;19.004;2023-05-19T01:34:01;100505.75;;;11.03;100.00
59443;BME280;45247;47.466;19.004;2023-05-19T01:36:32;100506.69;;;11.02;100.00
59443;BME280;45247;47.466;19.004;2023-05-19T01:39:01;100510.28;;;11.01;100.00
59443;BME280;45247;47.466;19.004;2023-05-19T01:41:30;100510.28;;;11.01;100.00
59443;BME280;45247;47.466;19.004;2023-05-19T01:44:00;100506.84;;;10.99;100.00
59443;BME280;45247;47.466;19.004;2023-05-19T01:46:28;100506.09;;;10.97;100.00
59443;BME280;45247;47.466;19.004;2023-05-19T01:48:58;100498.47;;;10.91;100.00
59443;BME280;45247;47.466;19.004;2023-05-19T01:51:26;100493.50;;;10.85;100.00
59443;BME280;45247;47.466;19.004;2023-05-19T01:53:54;100494.00;;;10.76;100.00
59443;BME280;45247;47.466;19.004;2023-05-19T01:56:33;100491.66;;;10.70;100.00
59443;BME280;45247;47.466;19.004;2023-05-19T01:59:15;100495.47;;;10.64;100.00
59443;BME280;45247;47.466;19.004;2023-05-19T02:01:51;100493.63;;;10.66;100.00
59443;BME280;45247;47.466;19.004;2023-05-19T02:04:28;100500.81;;;10.63;100.00
59443;BME280;45247;47.466;19.004;2023-05-19T02:07:02;100501.69;;;10.63;100.00
59443;BME280;45247;47.466;19.004;2023-05-19T02:09:38;100499.78;;;10.65;100.00
59443;BME280;45247;47.466;19.004;2023-05-19T02:12:13;100498.19;;;10.63;100.00
59443;BME280;45247;47.466;19.004;2023-05-19T02:14:49;100501.72;;;10.62;100.00
59443;BME280;45247;47.466;19.004;2023-05-19T02:17:20;100505.31;;;10.61;100.00
59443;BME280;45247;47.466;19.004;2023-05-19T02:19:51;100505.63;;;10.55;100.00
59443;BME280;45247;47.466;19.004;2023-05-19T02:22:19;100500.97;;;10.60;100.00
59443;BME280;45247;47.466;19.004;2023-05-19T02:24:48;100495.69;;;10.60;100.00
59443;BME280;45247;47.466;19.004;2023-05-19T02:27:17;100496.78;;;10.56;100.00
59443;BME280;45247;47.466;19.004;2023-05-19T02:29:45;100496.88;;;10.54;100.00
59443;BME280;45247;47.466;19.004;2023-05-19T02:32:14;100485.75;;;10.47;100.00
59443;BME280;45247;47.466;19.004;2023-05-19T02:34:42;100500.34;;;10.55;100.00
59443;BME280;45247;47.466;19.004;2023-05-19T02:37:13;100503.00;;;10.55;100.00
59443;BME280;45247;47.466;19.004;2023-05-19T02:39:41;100500.34;;;10.55;100.00
59443;BME280;45247;47.466;19.004;2023-05-19T02:42:10;100500.63;;;10.48;100.00
59443;BME280;45247;47.466;19.004;2023-05-19T02:44:40;100493.81;;;10.44;100.00
59443;BME280;45247;47.466;19.004;2023-05-19T02:47:08;100494.88;;;10.40;100.00
59443;BME280;45247;47.466;19.004;2023-05-19T02:49:36;100496.91;;;10.35;100.00
59443;BME280;45247;47.466;19.004;2023-05-19T02:52:05;100500.63;;;10.31;100.00
59443;BME280;45247;47.466;19.004;2023-05-19T02:54:35;100497.22;;;10.29;100.00
59443;BME280;45247;47.466;19.004;2023-05-19T02:57:03;100494.63;;;10.27;100.00
59443;BME280;45247;47.466;19.004;2023-05-19T02:59:32;100496.28;;;10.30;100.00
59443;BME280;45247;47.466;19.004;2023-05-19T03:02:01;100505.00;;;10.32;100.00
59443;BME280;45247;47.466;19.004;2023-05-19T03:04:30;100501.41;;;10.33;100.00
59443;BME280;45247;47.466;19.004;2023-05-19T03:06:58;100503.97;;;10.35;100.00
59443;BME280;45247;47.466;19.004;2023-05-19T03:09:27;100506.59;;;10.35;100.00
59443;BME280;45247;47.466;19.004;2023-05-19T03:11:57;100507.31;;;10.38;100.00
59443;BME280;45247;47.466;19.004;2023-05-19T03:14:31;100499.25;;;10.41;100.00
59443;BME280;45247;47.466;19.004;2023-05-19T03:16:59;100508.06;;;10.40;100.00
59443;BME280;45247;47.466;19.004;2023-05-19T03:19:27;100517.78;;;10.40;100.00
59443;BME280;45247;47.466;19.004;2023-05-19T03:21:58;100511.59;;;10.41;100.00
59443;BME280;45247;47.466;19.004;2023-05-19T03:24:26;100515.84;;;10.43;100.00
59443;BME280;45247;47.466;19.004;2023-05-19T03:26:54;100518.50;;;10.43;100.00
59443;BME280;45247;47.466;19.004;2023-05-19T03:29:23;100522.78;;;10.46;100.00
59443;BME280;45247;47.466;19.004;2023-05-19T03:31:51;100518.34;;;10.46;100.00
59443;BME280;45247;47.466;19.004;2023-05-19T03:34:20;100512.00;;;10.50;100.00
59443;BME280;45247;47.466;19.004;2023-05-19T03:36:48;100515.25;;;10.56;100.00
59443;BME280;45247;47.466;19.004;2023-05-19T03:39:16;100506.34;;;10.58;100.00
59443;BME280;45247;47.466;19.004;2023-05-19T03:41:44;100507.09;;;10.60;100.00
59443;BME280;45247;47.466;19.004;2023-05-19T03:44:13;100509.59;;;10.63;100.00
59443;BME280;45247;47.466;19.004;2023-05-19T03:46:42;100505.16;;;10.64;100.00
59443;BME280;45247;47.466;19.004;2023-05-19T03:49:10;100517.28;;;10.68;100.00
59443;BME280;45247;47.466;19.004;2023-05-19T03:51:39;100515.13;;;10.76;100.00
59443;BME280;45247;47.466;19.004;2023-05-19T03:54:08;100505.31;;;10.78;100.00
59443;BME280;45247;47.466;19.004;2023-05-19T03:56:38;100501.69;;;10.81;100.00
59443;BME280;45247;47.466;19.004;2023-05-19T03:59:07;100507.81;;;10.81;100.00
59443;BME280;45247;47.466;19.004;2023-05-19T04:01:38;100509.72;;;10.95;100.00
59443;BME280;45247;47.466;19.004;2023-05-19T04:04:08;100512.00;;;11.02;100.00
59443;BME280;45247;47.466;19.004;2023-05-19T04:06:38;100524.56;;;11.15;100.00
59443;BME280;45247;47.466;19.004;2023-05-19T04:09:11;100518.00;;;11.22;100.00
59443;BME280;45247;47.466;19.004;2023-05-19T04:11:40;100518.00;;;11.22;100.00
59443;BME280;45247;47.466;19.004;2023-05-19T04:14:08;100519.09;;;11.35;100.00
59443;BME280;45247;47.466;19.004;2023-05-19T04:16:36;100517.16;;;11.54;100.00
59443;BME280;45247;47.466;19.004;2023-05-19T04:19:05;100510.44;;;11.81;100.00
59443;BME280;45247;47.466;19.004;2023-05-19T04:21:34;100527.41;;;12.10;100.00
59443;BME280;45247;47.466;19.004;2023-05-19T04:24:03;100532.44;;;12.30;100.00
59443;BME280;45247;47.466;19.004;2023-05-19T04:26:32;100537.06;;;12.57;100.00
59443;BME280;45247;47.466;19.004;2023-05-19T04:29:00;100532.72;;;12.86;100.00
59443;BME280;45247;47.466;19.004;2023-05-19T04:31:30;100531.91;;;13.14;100.00
59443;BME280;45247;47.466;19.004;2023-05-19T04:34:02;100532.00;;;13.42;100.00
59443;BME280;45247;47.466;19.004;2023-05-19T04:36:30;100535.41;;;13.73;100.00
59443;BME280;45247;47.466;19.004;2023-05-19T04:39:01;100540.63;;;14.16;100.00
59443;BME280;45247;47.466;19.004;2023-05-19T04:41:33;100540.31;;;14.62;100.00
59443;BME280;45247;47.466;19.004;2023-05-19T04:44:01;100549.47;;;15.48;100.00
59443;BME280;45247;47.466;19.004;2023-05-19T04:46:29;100542.66;;;15.83;100.00
59443;BME280;45247;47.466;19.004;2023-05-19T04:48:57;100547.63;;;16.00;100.00
59443;BME280;45247;47.466;19.004;2023-05-19T04:51:27;100548.59;;;16.84;100.00
59443;BME280;45247;47.466;19.004;2023-05-19T04:53:57;100546.69;;;17.66;100.00
59443;BME280;45247;47.466;19.004;2023-05-19T04:56:26;100546.69;;;17.88;100.00
59443;BME280;45247;47.466;19.004;2023-05-19T04:58:55;100547.72;;;18.31;100.00
59443;BME280;45247;47.466;19.004;2023-05-19T05:01:24;100553.31;;;18.71;100.00
59443;BME280;45247;47.466;19.004;2023-05-19T05:03:53;100541.19;;;19.20;100.00
59443;BME280;45247;47.466;19.004;2023-05-19T05:06:24;100541.22;;;19.81;100.00
59443;BME280;45247;47.466;19.004;2023-05-19T05:08:54;100548.59;;;19.37;100.00
59443;BME280;45247;47.466;19.004;2023-05-19T05:11:23;100554.19;;;19.55;100.00
59443;BME280;45247;47.466;19.004;2023-05-19T05:13:53;100550.84;;;19.84;96.15
59443;BME280;45247;47.466;19.004;2023-05-19T05:16:24;100554.00;;;20.08;97.25
59443;BME280;45247;47.466;19.004;2023-05-19T05:18:53;100549.34;;;20.00;100.00
59443;BME280;45247;47.466;19.004;2023-05-19T05:21:22;100561.38;;;19.34;99.37
59443;BME280;45247;47.466;19.004;2023-05-19T05:23:51;100557.44;;;18.75;100.00
59443;BME280;45247;47.466;19.004;2023-05-19T05:26:20;100562.94;;;19.57;100.00
59443;BME280;45247;47.466;19.004;2023-05-19T05:28:49;100557.25;;;19.71;100.00
59443;BME280;45247;47.466;19.004;2023-05-19T05:31:18;100562.81;;;19.59;100.00
59443;BME280;45247;47.466;19.004;2023-05-19T05:33:46;100561.94;;;19.79;100.00
59443;BME280;45247;47.466;19.004;2023-05-19T05:36:15;100565.63;;;19.57;100.00
59443;BME280;45247;47.466;19.004;2023-05-19T05:38:43;100564.00;;;19.66;100.00
59443;BME280;45247;47.466;19.004;2023-05-19T05:41:11;100554.81;;;19.38;100.00
59443;BME280;45247;47.466;19.004;2023-05-19T05:43:39;100560.59;;;19.43;100.00
59443;BME280;45247;47.466;19.004;2023-05-19T05:46:08;100566.09;;;19.41;100.00
59443;BME280;45247;47.466;19.004;2023-05-19T05:48:38;100566.97;;;19.51;100.00
59443;BME280;45247;47.466;19.004;2023-05-19T05:51:08;100564.13;;;19.22;100.00
59443;BME280;45247;47.466;19.004;2023-05-19T05:53:40;100566.53;;;18.84;100.00
59443;BME280;45247;47.466;19.004;2023-05-19T05:56:11;100559.34;;;19.47;100.00
59443;BME280;45247;47.466;19.004;2023-05-19T05:58:39;100568.84;;;19.30;100.00
59443;BME280;45247;47.466;19.004;2023-05-19T06:01:08;100562.00;;;19.16;100.00
59443;BME280;45247;47.466;19.004;2023-05-19T06:03:40;100568.97;;;19.49;100.00
59443;BME280;45247;47.466;19.004;2023-05-19T06:06:10;100571.03;;;19.97;100.00
59443;BME280;45247;47.466;19.004;2023-05-19T06:08:38;100567.56;;;20.86;93.04
59443;BME280;45247;47.466;19.004;2023-05-19T06:11:06;100578.09;;;21.83;83.25
59443;BME280;45247;47.466;19.004;2023-05-19T06:13:35;100573.91;;;22.08;83.93
59443;BME280;45247;47.466;19.004;2023-05-19T06:16:04;100566.06;;;23.31;77.37
59443;BME280;45247;47.466;19.004;2023-05-19T06:18:32;100555.38;;;22.05;75.51
59443;BME280;45247;47.466;19.004;2023-05-19T06:21:02;100567.63;;;21.52;78.67
59443;BME280;45247;47.466;19.004;2023-05-19T06:23:30;100569.66;;;22.15;75.92
59443;BME280;45247;47.466;19.004;2023-05-19T06:25:58;100575.81;;;22.25;73.40
59443;BME280;45247;47.466;19.004;2023-05-19T06:28:26;100573.75;;;22.19;76.47
59443;BME280;45247;47.466;19.004;2023-05-19T06:30:55;100569.28;;;21.63;82.54
59443;BME280;45247;47.466;19.004;2023-05-19T06:33:23;100574.50;;;21.64;79.20
59443;BME280;45247;47.466;19.004;2023-05-19T06:35:58;100580.88;;;21.54;82.81
59443;BME280;45247;47.466;19.004;2023-05-19T06:38:28;100587.03;;;21.17;82.85
59443;BME280;45247;47.466;19.004;2023-05-19T06:40:57;100597.31;;;21.50;79.42
59443;BME280;45247;47.466;19.004;2023-05-19T06:43:25;100589.84;;;21.25;80.29
59443;BME280;45247;47.466;19.004;2023-05-19T06:45:54;100598.44;;;21.29;80.55
59443;BME280;45247;47.466;19.004;2023-05-19T06:48:22;100599.16;;;21.40;80.16
59443;BME280;45247;47.466;19.004;2023-05-19T06:50:51;100590.66;;;21.92;80.63
59443;BME280;45247;47.466;19.004;2023-05-19T06:53:19;100601.22;;;22.03;81.59
59443;BME280;45247;47.466;19.004;2023-05-19T06:55:49;100600.78;;;21.70;86.31
59443;BME280;45247;47.466;19.004;2023-05-19T06:58:25;100604.75;;;22.04;86.10
59443;BME280;45247;47.466;19.004;2023-05-19T07:00:53;100605.31;;;22.35;78.10
59443;BME280;45247;47.466;19.004;2023-05-19T07:03:22;100612.34;;;22.18;76.77
59443;BME280;45247;47.466;19.004;2023-05-19T07:05:50;100612.47;;;21.79;79.82
59443;BME280;45247;47.466;19.004;2023-05-19T07:08:18;100606.47;;;21.95;88.47
59443;BME280;45247;47.466;19.004;2023-05-19T07:10:46;100602.84;;;21.86;78.38
59443;BME280;45247;47.466;19.004;2023-05-19T07:13:16;100598.53;;;22.03;78.20
59443;BME280;45247;47.466;19.004;2023-05-19T07:15:44;100603.09;;;22.30;79.21
59443;BME280;45247;47.466;19.004;2023-05-19T07:18:14;100592.44;;;22.38;78.31
59443;BME280;45247;47.466;19.004;2023-05-19T07:20:43;100602.16;;;22.12;74.24
59443;BME280;45247;47.466;19.004;2023-05-19T07:23:11;100591.03;;;22.07;77.75
59443;BME280;45247;47.466;19.004;2023-05-19T07:25:42;100589.56;;;22.67;78.41
59443;BME280;45247;47.466;19.004;2023-05-19T07:28:11;100584.81;;;22.97;72.78
59443;BME280;45247;47.466;19.004;2023-05-19T07:30:40;100583.25;;;22.59;71.31
59443;BME280;45247;47.466;19.004;2023-05-19T07:35:37;100581.84;;;22.37;78.59
59443;BME280;45247;47.466;19.004;2023-05-19T07:38:05;100585.38;;;22.37;75.91
59443;BME280;45247;47.466;19.004;2023-05-19T07:43:02;100587.22;;;22.55;76.83
59443;BME280;45247;47.466;19.004;2023-05-19T07:45:30;100585.91;;;23.04;71.66
59443;BME280;45247;47.466;19.004;2023-05-19T07:48:00;100582.09;;;22.79;71.65
59443;BME280;45247;47.466;19.004;2023-05-19T07:50:28;100576.50;;;22.90;72.14
59443;BME280;45247;47.466;19.004;2023-05-19T07:52:56;100573.88;;;22.45;73.36
59443;BME280;45247;47.466;19.004;2023-05-19T07:55:28;100576.94;;;22.68;74.30
59443;BME280;45247;47.466;19.004;2023-05-19T07:57:56;100574.78;;;22.89;74.13
59443;BME280;45247;47.466;19.004;2023-05-19T08:00:24;100564.66;;;22.83;72.80
59443;BME280;45247;47.466;19.004;2023-05-19T08:02:52;100564.41;;;23.12;73.65
59443;BME280;45247;47.466;19.004;2023-05-19T08:05:24;100553.22;;;23.25;68.63
59443;BME280;45247;47.466;19.004;2023-05-19T08:07:52;100569.06;;;23.28;68.92
59443;BME280;45247;47.466;19.004;2023-05-19T08:10:20;100562.63;;;23.21;70.53
59443;BME280;45247;47.466;19.004;2023-05-19T08:12:48;100554.88;;;23.44;68.90
59443;BME280;45247;47.466;19.004;2023-05-19T08:15:17;100558.31;;;23.54;69.93
59443;BME280;45247;47.466;19.004;2023-05-19T08:17:45;100551.28;;;23.35;70.06
59443;BME280;45247;47.466;19.004;2023-05-19T08:20:13;100553.69;;;23.46;67.57
59443;BME280;45247;47.466;19.004;2023-05-19T08:22:43;100557.28;;;23.47;66.92
59443;BME280;45247;47.466;19.004;2023-05-19T08:25:11;100559.25;;;23.19;64.98
59443;BME280;45247;47.466;19.004;2023-05-19T08:27:39;100551.78;;;23.31;68.20
59443;BME280;45247;47.466;19.004;2023-05-19T08:30:08;100554.59;;;23.73;67.24
59443;BME280;45247;47.466;19.004;2023-05-19T08:32:37;100539.22;;;23.65;69.21
59443;BME280;45247;47.466;19.004;2023-05-19T08:35:05;100547.28;;;23.99;69.14
59443;BME280;45247;47.466;19.004;2023-05-19T08:37:34;100546.66;;;24.14;62.33
59443;BME280;45247;47.466;19.004;2023-05-19T08:40:07;100552.31;;;23.34;61.85
59443;BME280;45247;47.466;19.004;2023-05-19T08:42:38;100556.19;;;22.78;65.39
59443;BME280;45247;47.466;19.004;2023-05-19T08:45:07;100559.56;;;22.44;67.91
59443;BME280;45247;47.466;19.004;2023-05-19T08:47:36;100559.00;;;22.23;69.58
59443;BME280;45247;47.466;19.004;2023-05-19T08:50:06;100555.44;;;21.67;72.71
59443;BME280;45247;47.466;19.004;2023-05-19T08:52:39;100556.38;;;21.10;77.00
59443;BME280;45247;47.466;19.004;2023-05-19T08:55:24;100549.34;;;20.70;82.16
59443;BME280;45247;47.466;19.004;2023-05-19T08:57:57;100550.72;;;20.93;82.78
59443;BME280;45247;47.466;19.004;2023-05-19T09:00:25;100548.34;;;21.00;79.85
59443;BME280;45247;47.466;19.004;2023-05-19T09:02:55;100546.72;;;21.46;76.27
59443;BME280;45247;47.466;19.004;2023-05-19T09:05:43;100548.31;;;21.76;73.81
59443;BME280;45247;47.466;19.004;2023-05-19T09:08:12;100556.78;;;21.81;72.83
59443;BME280;45247;47.466;19.004;2023-05-19T09:10:43;100546.72;;;22.11;74.56
59443;BME280;45247;47.466;19.004;2023-05-19T09:13:11;100552.34;;;22.63;75.79
59443;BME280;45247;47.466;19.004;2023-05-19T09:15:39;100553.03;;;23.18;68.10
59443;BME280;45247;47.466;19.004;2023-05-19T09:18:10;100548.38;;;23.29;66.14
59443;BME280;45247;47.466;19.004;2023-05-19T09:20:39;100545.41;;;23.14;67.91
59443;BME280;45247;47.466;19.004;2023-05-19T09:23:12;100554.28;;;23.32;69.70
59443;BME280;45247;47.466;19.004;2023-05-19T09:25:50;100561.13;;;23.01;69.64
59443;BME280;45247;47.466;19.004;2023-05-19T09:28:25;100550.97;;;22.94;72.28
59443;BME280;45247;47.466;19.004;2023-05-19T09:30:59;100543.97;;;22.84;66.81
59443;BME280;45247;47.466;19.004;2023-05-19T09:33:27;100548.09;;;22.24;67.19
59443;BME280;45247;47.466;19.004;2023-05-19T09:35:56;100549.72;;;22.08;67.54
59443;BME280;45247;47.466;19.004;2023-05-19T09:38:25;100551.53;;;22.17;66.24
59443;BME280;45247;47.466;19.004;2023-05-19T09:40:57;100539.06;;;22.61;66.69
59443;BME280;45247;47.466;19.004;2023-05-19T09:43:26;100532.63;;;23.16;64.20
59443;BME280;45247;47.466;19.004;2023-05-19T09:45:58;100544.50;;;22.87;63.78
59443;BME280;45247;47.466;19.004;2023-05-19T09:48:27;100537.88;;;23.17;63.75
59443;BME280;45247;47.466;19.004;2023-05-19T09:50:56;100533.66;;;23.15;64.62
59443;BME280;45247;47.466;19.004;2023-05-19T09:53:25;100544.03;;;22.38;66.50
59443;BME280;45247;47.466;19.004;2023-05-19T09:55:56;100537.97;;;22.09;69.65
59443;BME280;45247;47.466;19.004;2023-05-19T09:58:25;100531.97;;;22.24;70.33
59443;BME280;45247;47.466;19.004;2023-05-19T10:00:54;100523.44;;;22.29;70.32
59443;BME280;45247;47.466;19.004;2023-05-19T10:03:22;100526.31;;;21.63;70.54
59443;BME280;45247;47.466;19.004;2023-05-19T10:05:52;100521.13;;;21.52;74.90
59443;BME280;45247;47.466;19.004;2023-05-19T10:08:21;100516.53;;;21.34;73.58
59443;BME280;45247;47.466;19.004;2023-05-19T10:10:50;100515.66;;;21.24;71.74
59443;BME280;45247;47.466;19.004;2023-05-19T10:13:20;100509.19;;;21.17;73.91
59443;BME280;45247;47.466;19.004;2023-05-19T10:15:49;100501.38;;;21.23;71.53
59443;BME280;45247;47.466;19.004;2023-05-19T10:18:26;100508.31;;;21.26;72.52
59443;BME280;45247;47.466;19.004;2023-05-19T10:20:56;100503.78;;;21.36;71.72
59443;BME280;45247;47.466;19.004;2023-05-19T10:23:24;100509.16;;;21.36;71.09
59443;BME280;45247;47.466;19.004;2023-05-19T10:25:55;100500.41;;;21.24;73.21
59443;BME280;45247;47.466;19.004;2023-05-19T10:28:33;100507.19;;;21.38;73.32
59443;BME280;45247;47.466;19.004;2023-05-19T10:31:05;100506.47;;;21.46;70.21
59443;BME280;45247;47.466;19.004;2023-05-19T10:33:41;100504.91;;;21.24;71.22
59443;BME280;45247;47.466;19.004;2023-05-19T10:36:36;100500.56;;;21.33;69.46
59443;BME280;45247;47.466;19.004;2023-05-19T10:39:10;100504.91;;;21.24;70.21
59443;BME280;45247;47.466;19.004;2023-05-19T10:41:52;100495.84;;;21.54;70.27
59443;BME280;45247;47.466;19.004;2023-05-19T10:44:41;100498.16;;;21.67;70.55
59443;BME280;45247;47.466;19.004;2023-05-19T10:47:13;100496.78;;;21.63;68.99
59443;BME280;45247;47.466;19.004;2023-05-19T10:49:42;100488.41;;;21.38;69.09
59443;BME280;45247;47.466;19.004;2023-05-19T10:52:18;100506.63;;;21.15;71.29
59443;BME280;45247;47.466;19.004;2023-05-19T10:54:49;100494.16;;;21.43;71.46
59443;BME280;45247;47.466;19.004;2023-05-19T10:57:19;100492.31;;;21.81;70.95
59443;BME280;45247;47.466;19.004;2023-05-19T10:59:48;100495.09;;;21.89;66.61
59443;BME280;45247;47.466;19.004;2023-05-19T11:02:36;100484.03;;;21.65;72.05
59443;BME280;45247;47.466;19.004;2023-05-19T11:05:08;100487.97;;;21.98;67.75
59443;BME280;45247;47.466;19.004;2023-05-19T11:07:40;100474.88;;;22.13;67.69
59443;BME280;45247;47.466;19.004;2023-05-19T11:10:09;100471.28;;;22.22;68.81
59443;BME280;45247;47.466;19.004;2023-05-19T11:12:43;100474.63;;;21.79;68.44
59443;BME280;45247;47.466;19.004;2023-05-19T11:15:14;100489.69;;;21.15;69.57
59443;BME280;45247;47.466;19.004;2023-05-19T11:17:46;100476.06;;;20.79;72.03
59443;BME280;45247;47.466;19.004;2023-05-19T11:20:22;100477.34;;;20.75;73.57
59443;BME280;45247;47.466;19.004;2023-05-19T11:23:03;100480.56;;;20.88;75.24
59443;BME280;45247;47.466;19.004;2023-05-19T11:25:42;100478.44;;;21.11;71.04
59443;BME280;45247;47.466;19.004;2023-05-19T11:28:11;100475.22;;;21.45;68.42
59443;BME280;45247;47.466;19.004;2023-05-19T11:30:42;100471.19;;;21.86;69.27
59443;BME280;45247;47.466;19.004;2023-05-19T11:33:12;100471.34;;;22.12;70.91
59443;BME280;45247;47.466;19.004;2023-05-19T11:35:40;100470.97;;;22.25;69.36
59443;BME280;45247;47.466;19.004;2023-05-19T11:38:10;100463.56;;;22.09;65.60
59443;BME280;45247;47.466;19.004;2023-05-19T11:40:39;100471.97;;;22.60;65.10
59443;BME280;45247;47.466;19.004;2023-05-19T11:43:11;100467.97;;;22.46;66.98
59443;BME280;45247;47.466;19.004;2023-05-19T11:45:41;100468.94;;;22.09;65.66
59443;BME280;45247;47.466;19.004;2023-05-19T11:48:10;100464.72;;;22.07;67.09
59443;BME280;45247;47.466;19.004;2023-05-19T11:50:40;100478.47;;;21.76;68.45
59443;BME280;45247;47.466;19.004;2023-05-19T11:53:10;100469.41;;;21.49;70.87
59443;BME280;45247;47.466;19.004;2023-05-19T11:55:44;100468.13;;;21.81;73.09
59443;BME280;45247;47.466;19.004;2023-05-19T11:58:13;100472.97;;;21.95;68.25
59443;BME280;45247;47.466;19.004;2023-05-19T12:00:43;100463.22;;;22.22;64.85
59443;BME280;45247;47.466;19.004;2023-05-19T12:03:13;100461.03;;;22.79;64.56
59443;BME280;45247;47.466;19.004;2023-05-19T12:05:44;100452.84;;;23.07;66.01
59443;BME280;45247;47.466;19.004;2023-05-19T12:08:15;100454.44;;;22.91;63.15
59443;BME280;45247;47.466;19.004;2023-05-19T12:10:47;100454.19;;;22.85;63.12
59443;BME280;45247;47.466;19.004;2023-05-19T12:13:16;100448.50;;;22.88;63.08
59443;BME280;45247;47.466;19.004;2023-05-19T12:15:46;100447.09;;;23.02;63.86
59443;BME280;45247;47.466;19.004;2023-05-19T12:18:14;100441.38;;;22.61;63.70
59443;BME280;45247;47.466;19.004;2023-05-19T12:20:42;100437.72;;;22.26;63.93
59443;BME280;45247;47.466;19.004;2023-05-19T12:23:11;100433.16;;;22.09;65.02
59443;BME280;45247;47.466;19.004;2023-05-19T12:25:40;100448.34;;;22.28;64.13
59443;BME280;45247;47.466;19.004;2023-05-19T12:28:08;100436.63;;;22.55;65.06
59443;BME280;45247;47.466;19.004;2023-05-19T12:30:37;100424.63;;;22.67;61.66
59443;BME280;45247;47.466;19.004;2023-05-19T12:33:07;100424.09;;;22.89;61.90
59443;BME280;45247;47.466;19.004;2023-05-19T12:35:36;100415.34;;;22.61;63.11
59443;BME280;45247;47.466;19.004;2023-05-19T12:38:05;100421.16;;;22.57;62.78
59443;BME280;45247;47.466;19.004;2023-05-19T12:40:33;100409.16;;;22.69;62.85
59443;BME280;45247;47.466;19.004;2023-05-19T12:43:02;100410.47;;;22.65;62.04
59443;BME280;45247;47.466;19.004;2023-05-19T12:45:33;100408.78;;;22.64;63.36
59443;BME280;45247;47.466;19.004;2023-05-19T12:48:02;100409.56;;;22.74;62.81
59443;BME280;45247;47.466;19.004;2023-05-19T12:50:36;100403.22;;;22.57;61.71
59443;BME280;45247;47.466;19.004;2023-05-19T12:53:06;100398.47;;;22.33;64.04
59443;BME280;45247;47.466;19.004;2023-05-19T12:55:38;100402.19;;;22.05;64.87
59443;BME280;45247;47.466;19.004;2023-05-19T12:58:08;100390.50;;;22.23;65.64